Login
Access
Login with your mtb-forum.it nickname and password.


You do not have an account? Sign up here for free

AlexCannarozzo

Last training unit 27/07/2014
0
Followers
2 334 Km
itineraries
17 799 m
of total vertical gain
88
hours of riding
26.36 Km/h
average speed
141
average HR


27/07/2014 Show to everybody Allenamento 27-07-2014 alle 07:30:24.000 125.65 Km 68 m 03:57:42 31.72 Km\h fondriest tf4
23/07/2014 Show to everybody Allenamento 23-07-2014 alle 16:32:13.000 56.22 Km 162 m 01:53:18 29.77 Km\h fondriest tf4
20/07/2014 Show to everybody Allenamento 20-07-2014 alle 05:35:06.000 101.29 Km 884 m 03:48:57 26.55 Km\h fondriest tf4
18/07/2014 Show to everybody Allenamento 18-07-2014 alle 16:10:41.000 38.19 Km 64 m 01:25:01 26.95 Km\h fondriest tf4
11/07/2014 Show to everybody Allenamento 11-07-2014 alle 16:46:35.000 74.46 Km 234 m 02:26:34 30.48 Km\h fondriest tf4
09/07/2014 Show to everybody Allenamento 09-07-2014 alle 05:58:57.000 79.35 Km 635 m 03:08:27 25.26 Km\h fondriest tf4
03/07/2014 Show to everybody Allenamento 03-07-2014 alle 16:22:57.000 58.16 Km 445 m 02:03:04 28.35 Km\h fondriest tf4
02/07/2014 Show to everybody Allenamento 02-07-2014 alle 15:54:19.000 58.07 Km 282 m 02:06:22 27.57 Km\h fondriest tf4
29/06/2014 Show to everybody Gran Fondo citta\` di Padova 107.72 Km 1354 m 04:09:04 25.95 Km\h fondriest tf4
27/06/2014 Show to everybody Allenamento 27-06-2014 alle 16:09:40.000 40.17 Km 100 m 01:25:15 28.27 Km\h fondriest tf4
25/06/2014 Show to everybody Allenamento 25-06-2014 alle 16:45:36.000 56.98 Km 562 m 02:14:29 25.42 Km\h fondriest tf4
22/06/2014 Show to everybody Allenamento 22-06-2014 alle 06:39:45.000 100.91 Km 1326 m 04:05:53 24.62 Km\h fondriest tf4
18/06/2014 Show to everybody Allenamento 18-06-2014 alle 16:37:08.000 50.7 Km 346 m 01:59:38 25.43 Km\h fondriest tf4
17/06/2014 Show to everybody Allenamento 17-06-2014 alle 16:16:16.000 72.31 Km 582 m 02:39:05 27.27 Km\h fondriest tf4
11/06/2014 Show to everybody Allenamento 11-06-2014 alle 16:16:51.000 54.33 Km 432 m 02:01:41 26.79 Km\h fondriest tf4
09/06/2014 Show to everybody Allenamento 09-06-2014 alle 17:09:35.000 44.25 Km 332 m 01:38:01 27.09 Km\h fondriest tf4
08/06/2014 Show to everybody Allenamento 08-06-2014 alle 05:41:42.000 73.54 Km 822 m 02:53:06 25.49 Km\h fondriest tf4
05/06/2014 Show to everybody Allenamento 05-06-2014 alle 08:47:49.000 58.43 Km 972 m 02:34:36 22.68 Km\h fondriest tf4
02/06/2014 Show to everybody Allenamento 02-06-2014 alle 06:39:19.000 73.14 Km 743 m 02:50:22 25.76 Km\h fondriest tf4
01/06/2014 Show to everybody Allenamento 01-06-2014 alle 07:11:11.000 44.54 Km 355 m 01:37:45 27.34 Km\h fondriest tf4
30/05/2014 Show to everybody Allenamento 30-05-2014 alle 16:16:32.000 22.52 Km 323 m 00:58:55 22.93 Km\h fondriest tf4
28/05/2014 Show to everybody Allenamento 28-05-2014 alle 15:40:56.000 50.61 Km 519 m 02:04:04 24.47 Km\h fondriest tf4
25/05/2014 Show to everybody df 92.98 Km 924 m 03:49:03 24.36 Km\h fondriest tf4
22/05/2014 Show to everybody df 53.23 Km 511 m 02:05:22 25.47 Km\h fondriest tf4
20/05/2014 Show to everybody df 55.19 Km 190 m 01:50:42 29.91 Km\h fondriest tf4
17/05/2014 Show to everybody Allenamento 17-05-2014 alle 12:12:12.000 37.9 Km 419 m 01:31:40 24.81 Km\h fondriest tf4
14/05/2014 Show to everybody df 66.49 Km 444 m 02:27:48 26.99 Km\h fondriest tf4
12/05/2014 Show to everybody df 45.21 Km 189 m 01:41:26 26.75 Km\h fondriest tf4
11/05/2014 Show to everybody Allenamento 11-05-2014 alle 06:13:54.000 52.79 Km 555 m 02:03:41 25.61 Km\h fondriest tf4
25/04/2014 Show to everybody Allenamento 25-04-2014 alle 06:31:07.000 82.82 Km 528 m 03:05:17 26.82 Km\h fondriest tf4
13/04/2014 Show to everybody Allenamento 13-04-2014 alle 06:39:25.000 50.47 Km 593 m 02:06:06 24.02 Km\h fondriest tf4
07/04/2014 Show to everybody Allenamento 07-04-2014 alle 15:46:53.000 50.7 Km 189 m 01:56:49 26.04 Km\h fondriest tf4
02/04/2014 Show to everybody Allenamento 02-04-2014 alle 12:19:21.000 44.24 Km 178 m 01:39:01 26.81 Km\h fondriest tf4
30/03/2014 Show to everybody Allenamento 30-03-2014 alle 08:28:38.000 50.21 Km 356 m 02:01:06 24.88 Km\h fondriest tf4
20/03/2014 Show to everybody Allenamento 20-03-2014 alle 10:39:58.000 71.53 Km 482 m 02:49:24 25.34 Km\h fondriest tf4
05/03/2014 Show to everybody Allenamento 05-03-2014 alle 13:18:16.000 51.87 Km 362 m 02:03:53 25.12 Km\h fondriest tf4
03/03/2014 Show to everybody Allenamento 03-03-2014 alle 10:18:32.000 41.81 Km 163 m 01:36:12 26.08 Km\h fondriest tf4
24/02/2014 Show to everybody Allenamento 24-02-2014 alle 10:52:25.000 45.07 Km 174 m 01:41:54 26.54 Km\h fondriest tf4

Show previous years trainings
This user's bikes.
fondriest tf4 38 2334.05 Km 17799 m 88:30:43 26.36 Km/h

32 points
Kilometers
0
Vertical gain
0
Rank:290

Watch ranking »

 

Bike name

Delete this bike?

Now you follow this users and you can compare your trainings

If you stop following this users you will not be able to compare your trainings with his


bdc-forum.it | 2012-2020 Training Camp v.1.0.15